sensor_id;sensor_type;location;lat;lon;timestamp;P1;durP1;ratioP1;P2;durP2;ratioP2
6564;SDS011;3316;44.118;27.258;2022-11-23T00:02:15;16.70;;;8.60;;
6564;SDS011;3316;44.118;27.258;2022-11-23T00:04:40;17.17;;;8.07;;
6564;SDS011;3316;44.118;27.258;2022-11-23T00:07:06;11.97;;;7.43;;
6564;SDS011;3316;44.118;27.258;2022-11-23T00:09:31;12.10;;;7.73;;
6564;SDS011;3316;44.118;27.258;2022-11-23T00:11:57;14.03;;;8.50;;
6564;SDS011;3316;44.118;27.258;2022-11-23T00:14:22;12.13;;;7.83;;
6564;SDS011;3316;44.118;27.258;2022-11-23T00:16:48;15.60;;;7.10;;
6564;SDS011;3316;44.118;27.258;2022-11-23T00:19:13;17.67;;;7.30;;
6564;SDS011;3316;44.118;27.258;2022-11-23T00:21:38;9.27;;;6.00;;
6564;SDS011;3316;44.118;27.258;2022-11-23T00:24:04;11.03;;;6.23;;
6564;SDS011;3316;44.118;27.258;2022-11-23T00:26:30;9.13;;;6.97;;
6564;SDS011;3316;44.118;27.258;2022-11-23T00:28:55;14.57;;;7.20;;
6564;SDS011;3316;44.118;27.258;2022-11-23T00:31:20;10.13;;;6.17;;
6564;SDS011;3316;44.118;27.258;2022-11-23T00:33:53;13.13;;;6.60;;
6564;SDS011;3316;44.118;27.258;2022-11-23T00:36:19;13.77;;;6.70;;
6564;SDS011;3316;44.118;27.258;2022-11-23T00:38:46;15.97;;;6.43;;
6564;SDS011;3316;44.118;27.258;2022-11-23T00:41:13;12.67;;;6.27;;
6564;SDS011;3316;44.118;27.258;2022-11-23T00:43:40;7.90;;;6.00;;
6564;SDS011;3316;44.118;27.258;2022-11-23T00:46:20;9.47;;;5.90;;
6564;SDS011;3316;44.118;27.258;2022-11-23T00:48:50;7.00;;;5.60;;
6564;SDS011;3316;44.118;27.258;2022-11-23T00:51:17;14.57;;;6.67;;
6564;SDS011;3316;44.118;27.258;2022-11-23T00:53:44;12.73;;;6.73;;
6564;SDS011;3316;44.118;27.258;2022-11-23T00:56:10;15.50;;;6.13;;
6564;SDS011;3316;44.118;27.258;2022-11-23T00:58:37;8.67;;;5.63;;
6564;SDS011;3316;44.118;27.258;2022-11-23T01:01:09;14.97;;;6.47;;
6564;SDS011;3316;44.118;27.258;2022-11-23T01:03:39;14.33;;;6.20;;
6564;SDS011;3316;44.118;27.258;2022-11-23T01:06:08;16.23;;;5.87;;
6564;SDS011;3316;44.118;27.258;2022-11-23T01:08:35;13.80;;;7.00;;
6564;SDS011;3316;44.118;27.258;2022-11-23T01:11:03;10.33;;;6.90;;
6564;SDS011;3316;44.118;27.258;2022-11-23T01:13:31;10.73;;;5.37;;
6564;SDS011;3316;44.118;27.258;2022-11-23T01:15:56;9.43;;;5.20;;
6564;SDS011;3316;44.118;27.258;2022-11-23T01:18:22;10.80;;;5.50;;
6564;SDS011;3316;44.118;27.258;2022-11-23T01:20:48;13.20;;;5.47;;
6564;SDS011;3316;44.118;27.258;2022-11-23T01:23:14;10.63;;;6.40;;
6564;SDS011;3316;44.118;27.258;2022-11-23T01:25:39;10.47;;;5.93;;
6564;SDS011;3316;44.118;27.258;2022-11-23T01:28:05;12.00;;;5.97;;
6564;SDS011;3316;44.118;27.258;2022-11-23T01:30:30;11.00;;;6.40;;
6564;SDS011;3316;44.118;27.258;2022-11-23T01:32:56;11.00;;;6.43;;
6564;SDS011;3316;44.118;27.258;2022-11-23T01:35:21;15.27;;;5.50;;
6564;SDS011;3316;44.118;27.258;2022-11-23T01:37:46;10.07;;;5.17;;
6564;SDS011;3316;44.118;27.258;2022-11-23T01:40:12;10.83;;;6.47;;
6564;SDS011;3316;44.118;27.258;2022-11-23T01:42:54;12.40;;;6.27;;
6564;SDS011;3316;44.118;27.258;2022-11-23T01:47:58;9.97;;;6.43;;
6564;SDS011;3316;44.118;27.258;2022-11-23T01:50:25;12.43;;;6.53;;
6564;SDS011;3316;44.118;27.258;2022-11-23T01:52:50;14.83;;;6.10;;
6564;SDS011;3316;44.118;27.258;2022-11-23T01:55:16;8.43;;;6.47;;
6564;SDS011;3316;44.118;27.258;2022-11-23T01:57:42;10.70;;;6.13;;
6564;SDS011;3316;44.118;27.258;2022-11-23T02:00:08;12.03;;;7.07;;
6564;SDS011;3316;44.118;27.258;2022-11-23T02:02:34;9.00;;;6.10;;
6564;SDS011;3316;44.118;27.258;2022-11-23T02:05:03;12.30;;;7.60;;
6564;SDS011;3316;44.118;27.258;2022-11-23T02:07:30;17.27;;;9.00;;
6564;SDS011;3316;44.118;27.258;2022-11-23T02:09:57;24.90;;;13.00;;
6564;SDS011;3316;44.118;27.258;2022-11-23T02:12:23;19.57;;;12.10;;
6564;SDS011;3316;44.118;27.258;2022-11-23T02:14:48;12.13;;;8.57;;
6564;SDS011;3316;44.118;27.258;2022-11-23T02:17:15;19.73;;;11.70;;
6564;SDS011;3316;44.118;27.258;2022-11-23T02:22:17;22.63;;;14.00;;
6564;SDS011;3316;44.118;27.258;2022-11-23T02:24:51;27.50;;;14.97;;
6564;SDS011;3316;44.118;27.258;2022-11-23T02:27:18;13.13;;;7.50;;
6564;SDS011;3316;44.118;27.258;2022-11-23T02:29:45;13.10;;;7.03;;
6564;SDS011;3316;44.118;27.258;2022-11-23T02:32:15;15.80;;;8.07;;
6564;SDS011;3316;44.118;27.258;2022-11-23T02:34:44;10.17;;;5.07;;
6564;SDS011;3316;44.118;27.258;2022-11-23T02:37:10;11.73;;;7.07;;
6564;SDS011;3316;44.118;27.258;2022-11-23T02:39:41;12.83;;;6.40;;
6564;SDS011;3316;44.118;27.258;2022-11-23T02:42:10;8.23;;;5.07;;
6564;SDS011;3316;44.118;27.258;2022-11-23T02:47:13;8.90;;;4.80;;
6564;SDS011;3316;44.118;27.258;2022-11-23T02:49:41;10.10;;;4.90;;
6564;SDS011;3316;44.118;27.258;2022-11-23T02:52:10;14.13;;;4.90;;
6564;SDS011;3316;44.118;27.258;2022-11-23T02:54:36;7.33;;;4.80;;
6564;SDS011;3316;44.118;27.258;2022-11-23T02:57:02;8.17;;;4.77;;
6564;SDS011;3316;44.118;27.258;2022-11-23T02:59:27;14.23;;;5.23;;
6564;SDS011;3316;44.118;27.258;2022-11-23T03:01:56;9.17;;;5.17;;
6564;SDS011;3316;44.118;27.258;2022-11-23T03:04:25;11.13;;;5.80;;
6564;SDS011;3316;44.118;27.258;2022-11-23T03:06:50;10.50;;;5.87;;
6564;SDS011;3316;44.118;27.258;2022-11-23T03:09:16;12.03;;;5.23;;
6564;SDS011;3316;44.118;27.258;2022-11-23T03:11:41;12.53;;;5.70;;
6564;SDS011;3316;44.118;27.258;2022-11-23T03:14:07;7.97;;;5.60;;
6564;SDS011;3316;44.118;27.258;2022-11-23T03:16:32;11.03;;;5.70;;
6564;SDS011;3316;44.118;27.258;2022-11-23T03:18:58;8.97;;;5.37;;
6564;SDS011;3316;44.118;27.258;2022-11-23T03:21:23;9.83;;;5.57;;
6564;SDS011;3316;44.118;27.258;2022-11-23T03:23:49;10.07;;;5.13;;
6564;SDS011;3316;44.118;27.258;2022-11-23T03:26:14;9.23;;;5.43;;
6564;SDS011;3316;44.118;27.258;2022-11-23T03:28:40;11.30;;;5.43;;
6564;SDS011;3316;44.118;27.258;2022-11-23T03:31:05;12.40;;;5.40;;
6564;SDS011;3316;44.118;27.258;2022-11-23T03:33:31;14.77;;;5.70;;
6564;SDS011;3316;44.118;27.258;2022-11-23T03:35:57;10.90;;;6.17;;
6564;SDS011;3316;44.118;27.258;2022-11-23T03:38:22;12.40;;;5.67;;
6564;SDS011;3316;44.118;27.258;2022-11-23T03:40:48;13.03;;;6.23;;
6564;SDS011;3316;44.118;27.258;2022-11-23T03:43:13;13.97;;;5.97;;
6564;SDS011;3316;44.118;27.258;2022-11-23T03:45:39;13.67;;;5.53;;
6564;SDS011;3316;44.118;27.258;2022-11-23T03:48:05;8.57;;;5.37;;
6564;SDS011;3316;44.118;27.258;2022-11-23T03:50:31;7.50;;;4.67;;
6564;SDS011;3316;44.118;27.258;2022-11-23T03:52:57;9.20;;;4.73;;
6564;SDS011;3316;44.118;27.258;2022-11-23T03:55:24;16.00;;;6.90;;
6564;SDS011;3316;44.118;27.258;2022-11-23T03:57:49;10.50;;;4.93;;
6564;SDS011;3316;44.118;27.258;2022-11-23T04:00:15;11.93;;;6.20;;
6564;SDS011;3316;44.118;27.258;2022-11-23T04:02:41;11.03;;;6.03;;
6564;SDS011;3316;44.118;27.258;2022-11-23T04:05:07;14.37;;;6.13;;
6564;SDS011;3316;44.118;27.258;2022-11-23T04:07:33;11.53;;;6.00;;
6564;SDS011;3316;44.118;27.258;2022-11-23T04:09:58;11.03;;;4.53;;
6564;SDS011;3316;44.118;27.258;2022-11-23T04:12:24;16.93;;;5.70;;
6564;SDS011;3316;44.118;27.258;2022-11-23T04:14:50;11.67;;;5.70;;
6564;SDS011;3316;44.118;27.258;2022-11-23T04:17:16;17.67;;;6.30;;
6564;SDS011;3316;44.118;27.258;2022-11-23T04:19:41;14.73;;;6.20;;
6564;SDS011;3316;44.118;27.258;2022-11-23T04:22:07;12.80;;;5.87;;
6564;SDS011;3316;44.118;27.258;2022-11-23T04:24:32;11.13;;;6.80;;
6564;SDS011;3316;44.118;27.258;2022-11-23T04:26:57;14.33;;;7.03;;
6564;SDS011;3316;44.118;27.258;2022-11-23T04:29:23;14.37;;;7.27;;
6564;SDS011;3316;44.118;27.258;2022-11-23T04:31:48;10.97;;;7.20;;
6564;SDS011;3316;44.118;27.258;2022-11-23T04:34:14;13.77;;;7.50;;
6564;SDS011;3316;44.118;27.258;2022-11-23T04:36:39;15.40;;;8.10;;
6564;SDS011;3316;44.118;27.258;2022-11-23T04:39:05;17.47;;;9.00;;
6564;SDS011;3316;44.118;27.258;2022-11-23T04:41:31;18.77;;;8.40;;
6564;SDS011;3316;44.118;27.258;2022-11-23T04:43:57;15.63;;;7.00;;
6564;SDS011;3316;44.118;27.258;2022-11-23T04:46:22;19.90;;;8.53;;
6564;SDS011;3316;44.118;27.258;2022-11-23T04:48:48;13.83;;;7.43;;
6564;SDS011;3316;44.118;27.258;2022-11-23T04:51:13;16.17;;;8.43;;
6564;SDS011;3316;44.118;27.258;2022-11-23T04:53:40;14.10;;;6.87;;
6564;SDS011;3316;44.118;27.258;2022-11-23T04:56:06;21.77;;;8.83;;
6564;SDS011;3316;44.118;27.258;2022-11-23T04:58:31;18.83;;;8.60;;
6564;SDS011;3316;44.118;27.258;2022-11-23T05:00:57;17.50;;;7.80;;
6564;SDS011;3316;44.118;27.258;2022-11-23T05:03:23;13.47;;;8.13;;
6564;SDS011;3316;44.118;27.258;2022-11-23T05:05:49;20.33;;;9.97;;
6564;SDS011;3316;44.118;27.258;2022-11-23T05:08:15;14.57;;;7.90;;
6564;SDS011;3316;44.118;27.258;2022-11-23T05:10:41;16.27;;;9.83;;
6564;SDS011;3316;44.118;27.258;2022-11-23T05:13:07;19.33;;;7.90;;
6564;SDS011;3316;44.118;27.258;2022-11-23T05:15:33;29.50;;;9.17;;
6564;SDS011;3316;44.118;27.258;2022-11-23T05:18:05;17.27;;;8.97;;
6564;SDS011;3316;44.118;27.258;2022-11-23T05:20:31;14.33;;;7.10;;
6564;SDS011;3316;44.118;27.258;2022-11-23T05:22:58;20.40;;;8.70;;
6564;SDS011;3316;44.118;27.258;2022-11-23T05:25:23;10.57;;;6.00;;
6564;SDS011;3316;44.118;27.258;2022-11-23T05:27:50;11.17;;;6.80;;
6564;SDS011;3316;44.118;27.258;2022-11-23T05:30:15;12.90;;;7.00;;
6564;SDS011;3316;44.118;27.258;2022-11-23T05:32:41;20.17;;;8.63;;
6564;SDS011;3316;44.118;27.258;2022-11-23T05:35:07;14.17;;;7.67;;
6564;SDS011;3316;44.118;27.258;2022-11-23T05:37:33;13.90;;;7.70;;
6564;SDS011;3316;44.118;27.258;2022-11-23T05:39:58;11.20;;;6.70;;
6564;SDS011;3316;44.118;27.258;2022-11-23T05:42:24;17.07;;;9.57;;
6564;SDS011;3316;44.118;27.258;2022-11-23T05:44:50;18.50;;;7.20;;
6564;SDS011;3316;44.118;27.258;2022-11-23T05:47:15;19.07;;;8.50;;
6564;SDS011;3316;44.118;27.258;2022-11-23T05:49:41;30.80;;;14.27;;
6564;SDS011;3316;44.118;27.258;2022-11-23T05:52:06;31.17;;;15.03;;
6564;SDS011;3316;44.118;27.258;2022-11-23T05:54:32;25.87;;;14.87;;
6564;SDS011;3316;44.118;27.258;2022-11-23T05:56:57;18.47;;;10.03;;
6564;SDS011;3316;44.118;27.258;2022-11-23T05:59:22;26.27;;;10.63;;
6564;SDS011;3316;44.118;27.258;2022-11-23T06:01:48;18.77;;;9.93;;
6564;SDS011;3316;44.118;27.258;2022-11-23T06:04:13;15.37;;;8.63;;
6564;SDS011;3316;44.118;27.258;2022-11-23T06:06:39;18.33;;;9.97;;
6564;SDS011;3316;44.118;27.258;2022-11-23T06:09:04;21.50;;;9.90;;
6564;SDS011;3316;44.118;27.258;2022-11-23T06:11:29;13.40;;;8.63;;
6564;SDS011;3316;44.118;27.258;2022-11-23T06:13:56;20.80;;;9.43;;
6564;SDS011;3316;44.118;27.258;2022-11-23T06:16:22;18.37;;;8.73;;
6564;SDS011;3316;44.118;27.258;2022-11-23T06:18:48;23.93;;;10.07;;
6564;SDS011;3316;44.118;27.258;2022-11-23T06:21:13;15.57;;;8.47;;
6564;SDS011;3316;44.118;27.258;2022-11-23T06:23:39;18.70;;;8.87;;
6564;SDS011;3316;44.118;27.258;2022-11-23T06:26:04;21.27;;;8.53;;
6564;SDS011;3316;44.118;27.258;2022-11-23T06:28:30;15.70;;;8.37;;
6564;SDS011;3316;44.118;27.258;2022-11-23T06:30:59;23.40;;;10.93;;
6564;SDS011;3316;44.118;27.258;2022-11-23T06:33:26;23.60;;;11.00;;
6564;SDS011;3316;44.118;27.258;2022-11-23T06:36:00;16.57;;;8.23;;
6564;SDS011;3316;44.118;27.258;2022-11-23T06:38:27;15.03;;;8.67;;
6564;SDS011;3316;44.118;27.258;2022-11-23T06:40:56;24.53;;;10.13;;
6564;SDS011;3316;44.118;27.258;2022-11-23T06:43:22;16.67;;;9.10;;
6564;SDS011;3316;44.118;27.258;2022-11-23T06:45:48;26.97;;;10.70;;
6564;SDS011;3316;44.118;27.258;2022-11-23T06:48:13;17.13;;;9.50;;
6564;SDS011;3316;44.118;27.258;2022-11-23T06:50:39;19.80;;;9.90;;
6564;SDS011;3316;44.118;27.258;2022-11-23T06:53:04;15.57;;;8.73;;
6564;SDS011;3316;44.118;27.258;2022-11-23T06:55:29;16.17;;;8.90;;
6564;SDS011;3316;44.118;27.258;2022-11-23T06:57:55;15.17;;;7.10;;
6564;SDS011;3316;44.118;27.258;2022-11-23T07:00:22;16.40;;;8.20;;
6564;SDS011;3316;44.118;27.258;2022-11-23T07:02:51;21.17;;;11.63;;
6564;SDS011;3316;44.118;27.258;2022-11-23T07:05:17;21.63;;;12.13;;
6564;SDS011;3316;44.118;27.258;2022-11-23T07:07:43;25.63;;;13.97;;
6564;SDS011;3316;44.118;27.258;2022-11-23T07:10:08;41.97;;;18.90;;
6564;SDS011;3316;44.118;27.258;2022-11-23T07:12:34;49.17;;;20.10;;
6564;SDS011;3316;44.118;27.258;2022-11-23T07:14:59;51.70;;;19.03;;
6564;SDS011;3316;44.118;27.258;2022-11-23T07:17:25;38.30;;;17.33;;
6564;SDS011;3316;44.118;27.258;2022-11-23T07:19:51;35.87;;;14.20;;
6564;SDS011;3316;44.118;27.258;2022-11-23T07:22:16;19.50;;;9.20;;
6564;SDS011;3316;44.118;27.258;2022-11-23T07:24:41;13.80;;;6.53;;
6564;SDS011;3316;44.118;27.258;2022-11-23T07:27:07;17.00;;;7.53;;
6564;SDS011;3316;44.118;27.258;2022-11-23T07:29:32;16.90;;;8.70;;
6564;SDS011;3316;44.118;27.258;2022-11-23T07:31:58;18.77;;;8.23;;
6564;SDS011;3316;44.118;27.258;2022-11-23T07:34:24;20.53;;;7.23;;
6564;SDS011;3316;44.118;27.258;2022-11-23T07:36:51;14.50;;;6.53;;
6564;SDS011;3316;44.118;27.258;2022-11-23T07:39:17;15.73;;;5.90;;
6564;SDS011;3316;44.118;27.258;2022-11-23T07:41:42;11.87;;;5.83;;
6564;SDS011;3316;44.118;27.258;2022-11-23T07:44:07;12.33;;;6.90;;
6564;SDS011;3316;44.118;27.258;2022-11-23T07:46:33;11.57;;;6.67;;
6564;SDS011;3316;44.118;27.258;2022-11-23T07:48:58;20.10;;;8.43;;
6564;SDS011;3316;44.118;27.258;2022-11-23T07:51:25;15.23;;;6.50;;
6564;SDS011;3316;44.118;27.258;2022-11-23T07:53:51;15.53;;;7.47;;
6564;SDS011;3316;44.118;27.258;2022-11-23T07:56:16;14.90;;;7.37;;
6564;SDS011;3316;44.118;27.258;2022-11-23T07:58:42;14.37;;;7.13;;
6564;SDS011;3316;44.118;27.258;2022-11-23T08:01:07;9.33;;;5.60;;
6564;SDS011;3316;44.118;27.258;2022-11-23T08:03:33;15.40;;;7.83;;
6564;SDS011;3316;44.118;27.258;2022-11-23T08:05:58;22.50;;;7.67;;
6564;SDS011;3316;44.118;27.258;2022-11-23T08:08:24;17.70;;;7.57;;
6564;SDS011;3316;44.118;27.258;2022-11-23T08:10:49;16.67;;;7.73;;
6564;SDS011;3316;44.118;27.258;2022-11-23T08:13:15;9.80;;;6.33;;
6564;SDS011;3316;44.118;27.258;2022-11-23T08:15:40;16.17;;;6.30;;
6564;SDS011;3316;44.118;27.258;2022-11-23T08:18:06;14.50;;;6.80;;
6564;SDS011;3316;44.118;27.258;2022-11-23T08:20:31;11.57;;;6.23;;
6564;SDS011;3316;44.118;27.258;2022-11-23T08:22:57;16.17;;;5.70;;
6564;SDS011;3316;44.118;27.258;2022-11-23T08:25:24;12.70;;;6.73;;
6564;SDS011;3316;44.118;27.258;2022-11-23T08:27:57;19.57;;;8.10;;
6564;SDS011;3316;44.118;27.258;2022-11-23T08:30:25;13.40;;;6.57;;
6564;SDS011;3316;44.118;27.258;2022-11-23T08:32:51;10.77;;;5.63;;
6564;SDS011;3316;44.118;27.258;2022-11-23T08:35:16;10.97;;;6.20;;
6564;SDS011;3316;44.118;27.258;2022-11-23T08:37:42;13.53;;;6.47;;
6564;SDS011;3316;44.118;27.258;2022-11-23T08:40:08;10.17;;;5.40;;
6564;SDS011;3316;44.118;27.258;2022-11-23T08:42:33;12.23;;;6.33;;
6564;SDS011;3316;44.118;27.258;2022-11-23T08:44:59;12.37;;;5.23;;
6564;SDS011;3316;44.118;27.258;2022-11-23T08:47:27;11.93;;;6.43;;
6564;SDS011;3316;44.118;27.258;2022-11-23T08:49:52;9.30;;;5.43;;
6564;SDS011;3316;44.118;27.258;2022-11-23T08:52:18;20.73;;;5.53;;
6564;SDS011;3316;44.118;27.258;2022-11-23T08:54:43;14.07;;;5.47;;
6564;SDS011;3316;44.118;27.258;2022-11-23T08:57:08;18.53;;;7.33;;
6564;SDS011;3316;44.118;27.258;2022-11-23T08:59:34;15.10;;;7.13;;
6564;SDS011;3316;44.118;27.258;2022-11-23T09:01:59;20.40;;;9.23;;
6564;SDS011;3316;44.118;27.258;2022-11-23T09:04:25;12.40;;;5.43;;
6564;SDS011;3316;44.118;27.258;2022-11-23T09:06:51;11.37;;;6.63;;
6564;SDS011;3316;44.118;27.258;2022-11-23T09:09:17;11.03;;;6.43;;
6564;SDS011;3316;44.118;27.258;2022-11-23T09:11:42;11.50;;;6.53;;
6564;SDS011;3316;44.118;27.258;2022-11-23T09:14:08;13.77;;;6.20;;
6564;SDS011;3316;44.118;27.258;2022-11-23T09:16:33;18.37;;;7.80;;
6564;SDS011;3316;44.118;27.258;2022-11-23T09:18:59;13.27;;;6.27;;
6564;SDS011;3316;44.118;27.258;2022-11-23T09:21:24;11.80;;;6.50;;
6564;SDS011;3316;44.118;27.258;2022-11-23T09:23:54;14.17;;;7.97;;
6564;SDS011;3316;44.118;27.258;2022-11-23T09:26:21;19.93;;;7.67;;
6564;SDS011;3316;44.118;27.258;2022-11-23T09:28:46;13.63;;;7.00;;
6564;SDS011;3316;44.118;27.258;2022-11-23T09:31:12;11.33;;;6.43;;
6564;SDS011;3316;44.118;27.258;2022-11-23T09:33:37;15.90;;;6.30;;
6564;SDS011;3316;44.118;27.258;2022-11-23T09:36:03;16.43;;;5.97;;
6564;SDS011;3316;44.118;27.258;2022-11-23T09:38:29;11.73;;;5.67;;
6564;SDS011;3316;44.118;27.258;2022-11-23T09:49:12;9.13;;;6.10;;
6564;SDS011;3316;44.118;27.258;2022-11-23T09:51:40;12.80;;;6.63;;
6564;SDS011;3316;44.118;27.258;2022-11-23T09:54:21;10.47;;;5.87;;
6564;SDS011;3316;44.118;27.258;2022-11-23T09:56:48;11.67;;;5.20;;
6564;SDS011;3316;44.118;27.258;2022-11-23T10:01:53;14.10;;;6.80;;
6564;SDS011;3316;44.118;27.258;2022-11-23T10:04:20;11.67;;;6.83;;
6564;SDS011;3316;44.118;27.258;2022-11-23T10:09:44;10.90;;;5.33;;
6564;SDS011;3316;44.118;27.258;2022-11-23T10:15:17;8.30;;;5.70;;
6564;SDS011;3316;44.118;27.258;2022-11-23T10:23:02;9.50;;;6.17;;
6564;SDS011;3316;44.118;27.258;2022-11-23T10:25:56;16.13;;;6.77;;
6564;SDS011;3316;44.118;27.258;2022-11-23T10:28:22;14.00;;;8.33;;
6564;SDS011;3316;44.118;27.258;2022-11-23T10:31:33;14.40;;;7.30;;
6564;SDS011;3316;44.118;27.258;2022-11-23T10:36:19;12.97;;;7.93;;
6564;SDS011;3316;44.118;27.258;2022-11-23T10:38:46;11.13;;;7.60;;
6564;SDS011;3316;44.118;27.258;2022-11-23T10:41:14;12.90;;;5.43;;
6564;SDS011;3316;44.118;27.258;2022-11-23T10:46:44;11.80;;;6.90;;
6564;SDS011;3316;44.118;27.258;2022-11-23T10:54:32;16.73;;;6.77;;
6564;SDS011;3316;44.118;27.258;2022-11-23T11:00:03;18.90;;;7.23;;
6564;SDS011;3316;44.118;27.258;2022-11-23T11:02:42;15.03;;;8.00;;
6564;SDS011;3316;44.118;27.258;2022-11-23T11:05:25;12.33;;;6.60;;
6564;SDS011;3316;44.118;27.258;2022-11-23T11:07:59;15.57;;;7.27;;
6564;SDS011;3316;44.118;27.258;2022-11-23T11:10:40;12.40;;;7.03;;
6564;SDS011;3316;44.118;27.258;2022-11-23T11:16:00;16.33;;;9.30;;
6564;SDS011;3316;44.118;27.258;2022-11-23T11:18:30;12.73;;;8.47;;
6564;SDS011;3316;44.118;27.258;2022-11-23T11:23:30;15.10;;;9.20;;
6564;SDS011;3316;44.118;27.258;2022-11-23T11:26:02;14.37;;;7.87;;
6564;SDS011;3316;44.118;27.258;2022-11-23T11:28:34;12.63;;;7.70;;
6564;SDS011;3316;44.118;27.258;2022-11-23T11:33:49;13.80;;;8.67;;
6564;SDS011;3316;44.118;27.258;2022-11-23T11:36:29;13.17;;;7.47;;
6564;SDS011;3316;44.118;27.258;2022-11-23T11:39:00;17.47;;;8.93;;
6564;SDS011;3316;44.118;27.258;2022-11-23T11:41:33;14.57;;;8.47;;
6564;SDS011;3316;44.118;27.258;2022-11-23T11:44:12;14.17;;;7.20;;
6564;SDS011;3316;44.118;27.258;2022-11-23T11:46:46;13.80;;;7.53;;
6564;SDS011;3316;44.118;27.258;2022-11-23T11:49:24;11.50;;;7.27;;
6564;SDS011;3316;44.118;27.258;2022-11-23T11:51:57;12.50;;;6.73;;
6564;SDS011;3316;44.118;27.258;2022-11-23T11:54:31;20.97;;;11.77;;
6564;SDS011;3316;44.118;27.258;2022-11-23T11:57:05;11.83;;;7.77;;
6564;SDS011;3316;44.118;27.258;2022-11-23T11:59:41;15.27;;;8.33;;
6564;SDS011;3316;44.118;27.258;2022-11-23T12:05:03;18.60;;;7.73;;
6564;SDS011;3316;44.118;27.258;2022-11-23T12:10:25;15.40;;;8.03;;
6564;SDS011;3316;44.118;27.258;2022-11-23T12:12:53;14.70;;;7.80;;
6564;SDS011;3316;44.118;27.258;2022-11-23T12:15:22;11.27;;;6.77;;
6564;SDS011;3316;44.118;27.258;2022-11-23T12:21:02;11.97;;;7.77;;
6564;SDS011;3316;44.118;27.258;2022-11-23T12:23:33;20.03;;;10.20;;
6564;SDS011;3316;44.118;27.258;2022-11-23T12:26:16;19.60;;;10.20;;
6564;SDS011;3316;44.118;27.258;2022-11-23T12:29:10;16.20;;;7.63;;
6564;SDS011;3316;44.118;27.258;2022-11-23T12:32:04;15.43;;;10.10;;
6564;SDS011;3316;44.118;27.258;2022-11-23T12:39:56;10.63;;;7.40;;
6564;SDS011;3316;44.118;27.258;2022-11-23T12:42:48;15.37;;;7.63;;
6564;SDS011;3316;44.118;27.258;2022-11-23T12:47:48;10.53;;;6.47;;
6564;SDS011;3316;44.118;27.258;2022-11-23T12:50:46;9.40;;;6.67;;
6564;SDS011;3316;44.118;27.258;2022-11-23T12:59:18;9.60;;;7.00;;
6564;SDS011;3316;44.118;27.258;2022-11-23T13:01:51;10.90;;;6.53;;
6564;SDS011;3316;44.118;27.258;2022-11-23T13:12:40;17.83;;;10.13;;
6564;SDS011;3316;44.118;27.258;2022-11-23T13:18:18;33.40;;;14.37;;
6564;SDS011;3316;44.118;27.258;2022-11-23T13:23:38;19.00;;;12.70;;
6564;SDS011;3316;44.118;27.258;2022-11-23T13:26:10;19.27;;;13.53;;
6564;SDS011;3316;44.118;27.258;2022-11-23T13:28:41;16.17;;;9.57;;
6564;SDS011;3316;44.118;27.258;2022-11-23T13:33:39;15.93;;;9.23;;
6564;SDS011;3316;44.118;27.258;2022-11-23T13:36:10;15.10;;;8.50;;
6564;SDS011;3316;44.118;27.258;2022-11-23T13:38:58;19.57;;;10.60;;
6564;SDS011;3316;44.118;27.258;2022-11-23T13:44:11;19.80;;;11.40;;
6564;SDS011;3316;44.118;27.258;2022-11-23T13:55:20;24.40;;;15.13;;
6564;SDS011;3316;44.118;27.258;2022-11-23T13:57:38;17.07;;;10.80;;
6564;SDS011;3316;44.118;27.258;2022-11-23T14:03:44;22.47;;;13.30;;
6564;SDS011;3316;44.118;27.258;2022-11-23T14:06:24;26.80;;;16.07;;
6564;SDS011;3316;44.118;27.258;2022-11-23T14:20:48;30.63;;;16.67;;
6564;SDS011;3316;44.118;27.258;2022-11-23T14:22:58;27.63;;;13.90;;
6564;SDS011;3316;44.118;27.258;2022-11-23T14:25:45;17.90;;;10.63;;
6564;SDS011;3316;44.118;27.258;2022-11-23T14:33:46;21.20;;;15.03;;
6564;SDS011;3316;44.118;27.258;2022-11-23T14:42:09;22.53;;;13.20;;
6564;SDS011;3316;44.118;27.258;2022-11-23T14:44:38;22.83;;;11.03;;
6564;SDS011;3316;44.118;27.258;2022-11-23T14:47:06;17.13;;;10.27;;
6564;SDS011;3316;44.118;27.258;2022-11-23T14:49:33;16.37;;;8.87;;
6564;SDS011;3316;44.118;27.258;2022-11-23T14:51:59;16.93;;;12.03;;
6564;SDS011;3316;44.118;27.258;2022-11-23T14:54:27;16.90;;;10.20;;
6564;SDS011;3316;44.118;27.258;2022-11-23T14:57:01;54.87;;;27.07;;
6564;SDS011;3316;44.118;27.258;2022-11-23T14:59:29;31.77;;;22.20;;
6564;SDS011;3316;44.118;27.258;2022-11-23T15:02:04;22.43;;;15.90;;
6564;SDS011;3316;44.118;27.258;2022-11-23T15:08:05;16.97;;;11.63;;
6564;SDS011;3316;44.118;27.258;2022-11-23T15:10:31;21.17;;;15.57;;
6564;SDS011;3316;44.118;27.258;2022-11-23T15:13:01;32.70;;;22.87;;
6564;SDS011;3316;44.118;27.258;2022-11-23T15:15:27;91.63;;;66.30;;
6564;SDS011;3316;44.118;27.258;2022-11-23T15:17:59;89.23;;;65.93;;
6564;SDS011;3316;44.118;27.258;2022-11-23T15:20:30;89.73;;;59.70;;
6564;SDS011;3316;44.118;27.258;2022-11-23T15:23:01;86.37;;;59.03;;
6564;SDS011;3316;44.118;27.258;2022-11-23T15:25:27;69.93;;;45.83;;
6564;SDS011;3316;44.118;27.258;2022-11-23T15:27:53;63.80;;;38.60;;
6564;SDS011;3316;44.118;27.258;2022-11-23T15:30:21;76.80;;;46.27;;
6564;SDS011;3316;44.118;27.258;2022-11-23T15:32:57;85.20;;;50.37;;
6564;SDS011;3316;44.118;27.258;2022-11-23T15:35:28;93.40;;;53.63;;
6564;SDS011;3316;44.118;27.258;2022-11-23T15:37:59;81.27;;;48.10;;
6564;SDS011;3316;44.118;27.258;2022-11-23T15:40:26;64.17;;;39.27;;
6564;SDS011;3316;44.118;27.258;2022-11-23T15:42:55;49.90;;;34.37;;
6564;SDS011;3316;44.118;27.258;2022-11-23T15:47:59;70.73;;;44.53;;
6564;SDS011;3316;44.118;27.258;2022-11-23T15:50:26;71.30;;;45.17;;
6564;SDS011;3316;44.118;27.258;2022-11-23T15:52:51;72.10;;;46.90;;
6564;SDS011;3316;44.118;27.258;2022-11-23T15:55:17;76.20;;;48.77;;
6564;SDS011;3316;44.118;27.258;2022-11-23T15:57:45;76.87;;;48.10;;
6564;SDS011;3316;44.118;27.258;2022-11-23T16:00:20;79.17;;;49.40;;
6564;SDS011;3316;44.118;27.258;2022-11-23T16:02:49;81.47;;;50.03;;
6564;SDS011;3316;44.118;27.258;2022-11-23T16:05:21;79.50;;;51.83;;
6564;SDS011;3316;44.118;27.258;2022-11-23T16:07:48;57.73;;;37.13;;
6564;SDS011;3316;44.118;27.258;2022-11-23T16:10:27;53.30;;;34.63;;
6564;SDS011;3316;44.118;27.258;2022-11-23T16:13:01;46.17;;;30.77;;
6564;SDS011;3316;44.118;27.258;2022-11-23T16:18:16;47.57;;;30.40;;
6564;SDS011;3316;44.118;27.258;2022-11-23T16:20:55;29.67;;;18.93;;
6564;SDS011;3316;44.118;27.258;2022-11-23T16:23:24;19.20;;;12.60;;
6564;SDS011;3316;44.118;27.258;2022-11-23T16:26:03;21.73;;;15.27;;
6564;SDS011;3316;44.118;27.258;2022-11-23T16:28:30;17.97;;;13.77;;
6564;SDS011;3316;44.118;27.258;2022-11-23T16:30:58;17.77;;;11.60;;
6564;SDS011;3316;44.118;27.258;2022-11-23T16:33:24;13.90;;;11.23;;
6564;SDS011;3316;44.118;27.258;2022-11-23T16:35:50;16.03;;;11.17;;
6564;SDS011;3316;44.118;27.258;2022-11-23T16:38:15;15.87;;;12.30;;
6564;SDS011;3316;44.118;27.258;2022-11-23T16:40:41;15.93;;;12.60;;
6564;SDS011;3316;44.118;27.258;2022-11-23T16:43:11;20.00;;;13.50;;
6564;SDS011;3316;44.118;27.258;2022-11-23T16:45:37;25.27;;;17.00;;
6564;SDS011;3316;44.118;27.258;2022-11-23T16:48:07;37.50;;;27.17;;
6564;SDS011;3316;44.118;27.258;2022-11-23T16:50:50;52.27;;;33.03;;
6564;SDS011;3316;44.118;27.258;2022-11-23T16:53:16;52.27;;;31.37;;
6564;SDS011;3316;44.118;27.258;2022-11-23T16:55:46;36.03;;;22.00;;
6564;SDS011;3316;44.118;27.258;2022-11-23T16:58:16;32.10;;;19.80;;
6564;SDS011;3316;44.118;27.258;2022-11-23T17:00:42;23.57;;;15.93;;
6564;SDS011;3316;44.118;27.258;2022-11-23T17:03:12;21.10;;;15.13;;
6564;SDS011;3316;44.118;27.258;2022-11-23T17:05:38;22.53;;;15.37;;
6564;SDS011;3316;44.118;27.258;2022-11-23T17:08:04;25.17;;;17.50;;
6564;SDS011;3316;44.118;27.258;2022-11-23T17:10:29;18.17;;;12.90;;